createdAt,value
2018-05-18T00:00:06.354Z,101822.95
2018-05-18T00:02:32.695Z,101816.81
2018-05-18T00:04:59.319Z,101815.14
2018-05-18T00:07:25.517Z,101818.31
2018-05-18T00:09:51.851Z,101817.53
2018-05-18T00:12:18.247Z,101819.86
2018-05-18T00:14:44.470Z,101809.09
2018-05-18T00:17:11.033Z,101813.08
2018-05-18T00:19:37.643Z,101812.41
2018-05-18T00:22:03.924Z,101817.72
2018-05-18T00:24:30.414Z,101817.38
2018-05-18T00:26:56.888Z,101827.68
2018-05-18T00:29:23.109Z,101828.39
2018-05-18T00:31:49.522Z,101835.53
2018-05-18T00:34:15.859Z,101822.00
2018-05-18T00:36:42.046Z,101815.95
2018-05-18T00:39:08.442Z,101823.20
2018-05-18T00:41:35.226Z,101819.41
2018-05-18T00:44:01.444Z,101817.30
2018-05-18T00:46:27.848Z,101816.02
2018-05-18T00:48:54.421Z,101815.67
2018-05-18T00:51:20.633Z,101814.83
2018-05-18T00:53:47.011Z,101815.78
2018-05-18T00:56:13.517Z,101820.30
2018-05-18T00:58:39.764Z,101816.81
2018-05-18T01:01:06.141Z,101824.48
2018-05-18T01:03:32.551Z,101831.06
2018-05-18T01:05:58.793Z,101829.30
2018-05-18T01:08:25.346Z,101829.01
2018-05-18T01:10:51.709Z,101829.16
2018-05-18T01:13:17.935Z,101840.97
2018-05-18T01:15:44.587Z,101838.36
2018-05-18T01:18:10.966Z,101842.39
2018-05-18T01:20:37.179Z,101842.93
2018-05-18T01:23:03.695Z,101847.40
2018-05-18T01:25:30.543Z,101848.33
2018-05-18T01:27:56.792Z,101846.63
2018-05-18T01:30:23.218Z,101843.13
2018-05-18T01:32:49.791Z,101847.60
2018-05-18T01:35:15.984Z,101834.03
2018-05-18T01:37:42.681Z,101839.73
2018-05-18T01:40:09.141Z,101842.39
2018-05-18T01:42:35.455Z,101841.11
2018-05-18T01:45:02.011Z,101843.85
2018-05-18T01:47:28.404Z,101852.75
2018-05-18T01:49:54.653Z,101863.02
2018-05-18T01:52:21.193Z,101860.86
2018-05-18T01:54:47.599Z,101856.47
2018-05-18T01:57:13.820Z,101857.37
2018-05-18T01:59:40.273Z,101855.20
2018-05-18T02:02:06.846Z,101850.78
2018-05-18T02:04:33.061Z,101856.56
2018-05-18T02:06:59.341Z,101849.58
2018-05-18T02:09:25.826Z,101852.14
2018-05-18T02:11:52.017Z,101847.33
2018-05-18T02:14:18.682Z,101851.39
2018-05-18T02:16:45.361Z,101859.36
2018-05-18T02:19:11.590Z,101861.63
2018-05-18T02:21:37.993Z,101855.03
2018-05-18T02:24:04.400Z,101855.07
2018-05-18T02:26:30.641Z,101856.36
2018-05-18T02:28:57.114Z,101859.05
2018-05-18T02:31:23.528Z,101855.95
2018-05-18T02:33:49.795Z,101858.21
2018-05-18T02:36:16.181Z,101859.58
2018-05-18T02:38:42.687Z,101863.09
2018-05-18T02:41:08.901Z,101854.32
2018-05-18T02:43:35.472Z,101861.80
2018-05-18T02:46:02.045Z,101870.07
2018-05-18T02:48:28.285Z,101866.04
2018-05-18T02:50:54.614Z,101873.56
2018-05-18T02:53:21.298Z,101877.06
2018-05-18T02:55:47.551Z,101884.14
2018-05-18T02:58:14.107Z,101876.97
2018-05-18T03:00:40.732Z,101881.70
2018-05-18T03:03:07.023Z,101876.70
2018-05-18T03:05:33.635Z,101872.98
2018-05-18T03:07:59.975Z,101865.30
2018-05-18T03:10:26.210Z,101875.33
2018-05-18T03:12:52.667Z,101875.98
2018-05-18T03:15:19.050Z,101882.44
2018-05-18T03:17:45.304Z,101879.14
2018-05-18T03:20:11.702Z,101874.53
2018-05-18T03:22:38.223Z,101873.05
2018-05-18T03:25:04.430Z,101871.13
2018-05-18T03:27:30.904Z,101870.88
2018-05-18T03:29:57.347Z,101875.16
2018-05-18T03:32:23.596Z,101868.31
2018-05-18T03:34:50.051Z,101865.89
2018-05-18T03:37:16.459Z,101860.09
2018-05-18T03:39:42.662Z,101866.86
2018-05-18T03:42:09.124Z,101862.22
2018-05-18T03:44:35.879Z,101863.39
2018-05-18T03:47:02.539Z,101863.19
2018-05-18T03:49:28.985Z,101864.34
2018-05-18T03:51:55.229Z,101866.80
2018-05-18T03:54:21.693Z,101862.20
2018-05-18T03:56:48.157Z,101870.86
2018-05-18T03:59:14.366Z,101872.43
2018-05-18T04:01:52.869Z,101868.71
2018-05-18T04:04:31.156Z,101876.47
2018-05-18T04:07:09.632Z,101881.13
2018-05-18T04:09:36.092Z,101880.41
2018-05-18T04:12:02.353Z,101883.30
2018-05-18T04:14:28.789Z,101884.84
2018-05-18T04:16:55.421Z,101878.97
2018-05-18T04:19:21.671Z,101891.00
2018-05-18T04:21:48.285Z,101889.88
2018-05-18T04:24:14.760Z,101889.31
2018-05-18T04:26:40.987Z,101894.42
2018-05-18T04:29:07.525Z,101879.70
2018-05-18T04:31:34.136Z,101878.50
2018-05-18T04:34:00.350Z,101876.98
2018-05-18T04:36:26.807Z,101849.24
2018-05-18T04:38:53.207Z,101881.95
2018-05-18T04:41:19.406Z,101883.11
2018-05-18T04:43:45.881Z,101877.70
2018-05-18T04:46:12.885Z,101879.75
2018-05-18T04:48:39.095Z,101883.17
2018-05-18T04:51:05.599Z,101884.84
2018-05-18T04:53:32.081Z,101880.72
2018-05-18T04:55:58.340Z,101884.98
2018-05-18T04:58:24.778Z,101879.96
2018-05-18T05:00:51.198Z,101890.02
2018-05-18T05:03:17.441Z,101886.71
2018-05-18T05:05:43.910Z,101889.19
2018-05-18T05:08:10.216Z,101884.17
2018-05-18T05:12:52.186Z,101883.03
2018-05-18T05:15:18.727Z,101890.86
2018-05-18T05:17:45.009Z,101880.95
2018-05-18T05:20:11.605Z,101883.91
2018-05-18T05:22:37.981Z,101884.61
2018-05-18T05:25:04.259Z,101884.86
2018-05-18T05:27:30.674Z,101892.19
2018-05-18T05:29:57.267Z,101890.66
2018-05-18T05:32:23.494Z,101880.42
2018-05-18T05:34:49.993Z,101887.13
2018-05-18T05:37:16.679Z,101883.33
2018-05-18T05:39:43.001Z,101877.47
2018-05-18T05:42:09.649Z,101888.19
2018-05-18T05:44:36.117Z,101886.60
2018-05-18T05:47:02.638Z,101882.45
2018-05-18T05:49:28.963Z,101894.52
2018-05-18T05:51:55.576Z,101893.48
2018-05-18T05:54:21.854Z,101893.34
2018-05-18T05:56:48.457Z,101903.87
2018-05-18T05:59:15.108Z,101901.94
2018-05-18T06:01:41.320Z,101890.17
2018-05-18T06:04:07.653Z,101890.45
2018-05-18T06:06:34.161Z,101887.28
2018-05-18T06:09:00.442Z,101890.06
2018-05-18T06:11:26.785Z,101882.44
2018-05-18T06:13:53.217Z,101888.38
2018-05-18T06:16:19.441Z,101883.17
2018-05-18T06:18:45.749Z,101892.09
2018-05-18T06:21:12.372Z,101883.41
2018-05-18T06:23:38.596Z,101884.09
2018-05-18T06:26:05.053Z,101894.45
2018-05-18T06:28:31.746Z,101881.01
2018-05-18T06:30:57.985Z,101889.48
2018-05-18T06:33:24.367Z,101887.48
2018-05-18T06:35:50.850Z,101889.50
2018-05-18T06:38:17.057Z,101893.73
2018-05-18T06:40:43.548Z,101884.75
2018-05-18T06:43:09.947Z,101878.73
2018-05-18T06:45:36.192Z,101886.83
2018-05-18T06:48:02.744Z,101890.55
2018-05-18T06:50:29.247Z,101882.72
2018-05-18T06:52:55.433Z,101884.72
2018-05-18T06:55:21.957Z,101875.61
2018-05-18T06:57:48.758Z,101879.83
2018-05-18T07:00:14.944Z,101883.52
2018-05-18T07:02:41.376Z,101873.85
2018-05-18T07:05:07.884Z,101883.43
2018-05-18T07:07:34.157Z,101880.50
2018-05-18T07:10:00.569Z,101881.59
2018-05-18T07:12:27.027Z,101879.97
2018-05-18T07:14:53.304Z,101886.33
2018-05-18T07:17:19.695Z,101884.23
2018-05-18T07:19:46.341Z,101873.94
2018-05-18T07:22:12.641Z,101874.37
2018-05-18T07:24:39.296Z,101878.97
2018-05-18T07:27:05.930Z,101869.82
2018-05-18T07:29:32.118Z,101873.64
2018-05-18T07:31:58.392Z,101877.80
2018-05-18T07:34:24.996Z,101877.99
2018-05-18T07:36:51.198Z,101887.56
2018-05-18T07:39:17.794Z,101888.22
2018-05-18T07:41:44.530Z,101889.42
2018-05-18T07:44:10.752Z,101887.52
2018-05-18T07:46:37.213Z,101883.34
2018-05-18T07:49:03.865Z,101883.09
2018-05-18T07:51:30.098Z,101879.27
2018-05-18T07:53:56.752Z,101888.87
2018-05-18T07:56:23.128Z,101888.27
2018-05-18T07:58:49.354Z,101886.81
2018-05-18T08:01:15.763Z,101876.83
2018-05-18T08:03:42.411Z,101872.64
2018-05-18T08:06:08.629Z,101870.26
2018-05-18T08:08:35.071Z,101868.03
2018-05-18T08:11:01.636Z,101874.05
2018-05-18T08:13:27.853Z,101870.13
2018-05-18T08:15:54.527Z,101872.94
2018-05-18T08:18:21.080Z,101872.22
2018-05-18T08:20:47.316Z,101866.72
2018-05-18T08:23:13.927Z,101876.48
2018-05-18T08:25:40.382Z,101864.48
2018-05-18T08:28:06.619Z,101867.37
2018-05-18T08:30:45.111Z,101877.32
2018-05-18T08:33:11.454Z,101865.86
2018-05-18T08:35:37.685Z,101872.30
2018-05-18T08:38:04.241Z,101872.86
2018-05-18T08:40:30.718Z,101874.00
2018-05-18T08:42:56.971Z,101871.86
2018-05-18T08:45:23.584Z,101880.62
2018-05-18T08:47:50.090Z,101881.23
2018-05-18T08:50:16.642Z,101879.53
2018-05-18T08:52:43.102Z,101875.89
2018-05-18T08:55:09.599Z,101868.36
2018-05-18T08:57:35.802Z,101880.86
2018-05-18T09:00:02.229Z,101873.87
2018-05-18T09:02:28.705Z,101885.16
2018-05-18T09:04:54.908Z,101868.52
2018-05-18T09:07:21.502Z,101884.87
2018-05-18T09:09:47.922Z,101871.88
2018-05-18T09:12:14.106Z,101883.50
2018-05-18T09:14:40.969Z,101878.04
2018-05-18T09:17:07.463Z,101885.45
2018-05-18T09:19:33.708Z,101873.56
2018-05-18T09:22:00.199Z,101876.69
2018-05-18T09:24:26.637Z,101880.72
2018-05-18T09:26:52.893Z,101878.89
2018-05-18T09:29:19.539Z,101877.13
2018-05-18T09:31:46.227Z,101880.69
2018-05-18T09:34:12.527Z,101875.54
2018-05-18T09:36:38.859Z,101877.85
2018-05-18T09:39:05.401Z,101882.66
2018-05-18T09:41:31.683Z,101876.41
2018-05-18T09:43:58.147Z,101878.48
2018-05-18T09:46:24.575Z,101885.23
2018-05-18T09:48:50.771Z,101880.69
2018-05-18T09:51:17.763Z,101875.33
2018-05-18T09:53:44.144Z,101873.20
2018-05-18T09:56:10.371Z,101877.18
2018-05-18T09:58:36.770Z,101878.46
2018-05-18T10:01:03.342Z,101882.52
2018-05-18T10:03:29.564Z,101875.55
2018-05-18T10:05:55.875Z,101872.27
2018-05-18T10:08:22.165Z,101871.80
2018-05-18T10:10:48.405Z,101863.92
2018-05-18T10:13:14.844Z,101868.41
2018-05-18T10:15:41.310Z,101862.69
2018-05-18T10:18:07.544Z,101863.33
2018-05-18T10:20:34.011Z,101875.50
2018-05-18T10:23:00.578Z,101861.76
2018-05-18T10:25:26.854Z,101862.27
2018-05-18T10:27:53.259Z,101876.42
2018-05-18T10:30:27.789Z,101863.80
2018-05-18T10:32:54.295Z,101869.67
2018-05-18T10:35:20.602Z,101881.66
2018-05-18T10:37:46.946Z,101872.06
2018-05-18T10:40:13.617Z,101867.73
2018-05-18T10:42:39.882Z,101862.45
2018-05-18T10:45:06.559Z,101864.39
2018-05-18T10:47:33.030Z,101871.73
2018-05-18T10:49:59.292Z,101868.03
2018-05-18T10:52:25.897Z,101873.20
2018-05-18T10:54:52.282Z,101878.08
2018-05-18T10:57:18.503Z,101875.59
2018-05-18T10:59:44.935Z,101868.55
2018-05-18T11:02:11.540Z,101879.34
2018-05-18T11:04:37.744Z,101867.07
2018-05-18T11:07:04.304Z,101878.51
2018-05-18T11:09:30.789Z,101868.41
2018-05-18T11:11:57.001Z,101867.53
2018-05-18T11:14:23.642Z,101869.69
2018-05-18T11:16:50.272Z,101866.95
2018-05-18T11:19:16.526Z,101870.72
2018-05-18T11:21:42.892Z,101887.80
2018-05-18T11:24:09.425Z,101874.98
2018-05-18T11:26:35.661Z,101863.34
2018-05-18T11:29:02.242Z,101877.00
2018-05-18T11:31:28.669Z,101875.91
2018-05-18T11:33:54.874Z,101873.27
2018-05-18T11:36:21.567Z,101869.20
2018-05-18T11:38:48.184Z,101864.91
2018-05-18T11:41:14.378Z,101880.80
2018-05-18T11:43:40.675Z,101872.84
2018-05-18T11:46:07.079Z,101880.32
2018-05-18T11:48:33.309Z,101881.14
2018-05-18T11:50:59.877Z,101866.44
2018-05-18T11:53:26.378Z,101867.67
2018-05-18T11:55:52.617Z,101876.00
2018-05-18T11:58:19.096Z,101877.96
2018-05-18T12:00:45.503Z,101878.83
2018-05-18T12:03:11.756Z,101878.02
2018-05-18T12:05:38.370Z,101869.23
2018-05-18T12:08:04.888Z,101856.98
2018-05-18T12:10:31.101Z,101860.73
2018-05-18T12:12:57.540Z,101851.80
2018-05-18T12:15:24.081Z,101864.10
2018-05-18T12:17:50.305Z,101869.38
2018-05-18T12:20:17.099Z,101868.17
2018-05-18T12:22:43.599Z,101871.22
2018-05-18T12:25:09.811Z,101862.17
2018-05-18T12:27:36.474Z,101859.10
2018-05-18T12:30:02.991Z,101864.75
2018-05-18T12:32:29.196Z,101873.83
2018-05-18T12:34:55.659Z,101867.12
2018-05-18T12:37:22.260Z,101869.64
2018-05-18T12:39:48.520Z,101864.10
2018-05-18T12:42:15.118Z,101873.26
2018-05-18T12:44:41.820Z,101854.13
2018-05-18T12:47:08.112Z,101863.80
2018-05-18T12:49:34.578Z,101868.06
2018-05-18T12:52:01.137Z,101873.89
2018-05-18T12:54:27.580Z,101867.36
2018-05-18T12:56:53.979Z,101869.95
2018-05-18T12:59:20.481Z,101872.09
2018-05-18T13:01:46.707Z,101873.72
2018-05-18T13:04:13.275Z,101879.16
2018-05-18T13:06:39.750Z,101874.07
2018-05-18T13:09:05.966Z,101873.50
2018-05-18T13:11:32.432Z,101873.50
2018-05-18T13:13:58.868Z,101873.87
2018-05-18T13:16:25.089Z,101875.91
2018-05-18T13:18:51.774Z,101885.41
2018-05-18T13:21:18.055Z,101882.41
2018-05-18T13:23:44.322Z,101896.95
2018-05-18T13:26:10.863Z,101895.55
2018-05-18T13:28:37.264Z,101891.30
2018-05-18T13:31:03.518Z,101880.61
2018-05-18T13:33:30.151Z,101877.48
2018-05-18T13:35:56.579Z,101875.78
2018-05-18T13:38:22.814Z,101878.35
2018-05-18T13:40:49.167Z,101882.19
2018-05-18T13:43:15.453Z,101892.91
2018-05-18T13:45:41.689Z,101886.89
2018-05-18T13:48:08.110Z,101883.41
2018-05-18T13:50:34.613Z,101877.13
2018-05-18T13:53:00.890Z,101888.48
2018-05-18T13:55:27.752Z,101887.13
2018-05-18T13:57:54.166Z,101890.06
2018-05-18T14:00:20.424Z,101882.73
2018-05-18T14:02:46.889Z,101896.41
2018-05-18T14:05:13.382Z,101890.05
2018-05-18T14:07:39.637Z,101906.95
2018-05-18T14:10:06.171Z,101904.66
2018-05-18T14:12:32.492Z,101898.93
2018-05-18T14:14:58.765Z,101904.06
2018-05-18T14:17:25.233Z,101898.09
2018-05-18T14:19:51.586Z,101895.70
2018-05-18T14:22:17.851Z,101895.63
2018-05-18T14:24:44.305Z,101890.05
2018-05-18T14:27:10.917Z,101893.00
2018-05-18T14:29:37.154Z,101895.75
2018-05-18T14:32:03.461Z,101894.00
2018-05-18T14:34:29.849Z,101886.05
2018-05-18T14:36:56.064Z,101902.36
2018-05-18T14:39:22.376Z,101894.84
2018-05-18T14:41:48.937Z,101899.77
2018-05-18T14:44:15.186Z,101894.16
2018-05-18T14:46:42.483Z,101896.87
2018-05-18T14:49:08.885Z,101900.52
2018-05-18T14:51:35.091Z,101890.10
2018-05-18T14:54:01.557Z,101885.20
2018-05-18T14:56:28.327Z,101901.68
2018-05-18T14:58:54.532Z,101894.36
2018-05-18T15:01:20.850Z,101903.47
2018-05-18T15:03:47.358Z,101905.14
2018-05-18T15:06:13.588Z,101902.55
2018-05-18T15:08:40.135Z,101915.20
2018-05-18T15:11:06.701Z,101904.27
2018-05-18T15:13:32.961Z,101909.44
2018-05-18T15:15:59.354Z,101904.23
2018-05-18T15:18:26.003Z,101909.41
2018-05-18T15:20:52.239Z,101896.55
2018-05-18T15:23:18.766Z,101906.30
2018-05-18T15:25:45.047Z,101905.62
2018-05-18T15:28:11.313Z,101902.06
2018-05-18T15:30:37.849Z,101914.64
2018-05-18T15:33:04.182Z,101908.37
2018-05-18T15:35:30.498Z,101902.31
2018-05-18T15:37:56.919Z,101909.58
2018-05-18T15:40:23.583Z,101907.98
2018-05-18T15:42:49.786Z,101908.66
2018-05-18T15:45:16.251Z,101917.39
2018-05-18T15:47:42.788Z,101911.40
2018-05-18T15:50:09.005Z,101908.61
2018-05-18T15:52:35.348Z,101922.56
2018-05-18T15:55:01.904Z,101923.41
2018-05-18T15:57:28.438Z,101927.55
2018-05-18T15:59:54.718Z,101921.03
2018-05-18T16:02:21.072Z,101912.81
2018-05-18T16:04:47.363Z,101904.55
2018-05-18T16:07:13.996Z,101912.24
2018-05-18T16:09:40.415Z,101905.62
2018-05-18T16:12:06.619Z,101899.27
2018-05-18T16:14:33.040Z,101900.82
2018-05-18T16:16:59.403Z,101912.95
2018-05-18T16:19:25.624Z,101910.52
2018-05-18T16:21:52.169Z,101914.53
2018-05-18T16:24:18.798Z,101924.05
2018-05-18T16:26:45.006Z,101916.91
2018-05-18T16:29:11.719Z,101911.34
2018-05-18T16:31:38.157Z,101921.00
2018-05-18T16:34:04.370Z,101923.05
2018-05-18T16:36:30.898Z,101914.01
2018-05-18T16:38:57.238Z,101917.00
2018-05-18T16:41:23.567Z,101918.75
2018-05-18T16:43:49.986Z,101909.20
2018-05-18T16:46:16.654Z,101919.58
2018-05-18T16:48:42.875Z,101919.84
2018-05-18T16:51:09.209Z,101928.23
2018-05-18T16:53:35.565Z,101926.88
2018-05-18T16:56:01.860Z,101930.52
2018-05-18T16:58:28.528Z,101924.27
2018-05-18T17:00:55.059Z,101921.06
2018-05-18T17:03:21.317Z,101917.95
2018-05-18T17:05:47.870Z,101928.32
2018-05-18T17:08:14.357Z,101923.33
2018-05-18T17:10:40.562Z,101927.77
2018-05-18T17:13:07.129Z,101923.26
2018-05-18T17:15:33.578Z,101924.38
2018-05-18T17:17:59.775Z,101930.86
2018-05-18T17:20:26.160Z,101924.50
2018-05-18T17:22:52.651Z,101927.83
2018-05-18T17:25:18.831Z,101925.66
2018-05-18T17:27:45.361Z,101925.40
2018-05-18T17:30:11.818Z,101933.19
2018-05-18T17:32:38.072Z,101943.08
2018-05-18T17:35:04.450Z,101945.31
2018-05-18T17:37:30.981Z,101946.22
2018-05-18T17:39:57.205Z,101947.50
2018-05-18T17:42:23.721Z,101951.66
2018-05-18T17:44:50.243Z,101946.55
2018-05-18T17:47:16.413Z,101946.48
2018-05-18T17:49:42.671Z,101950.20
2018-05-18T17:52:09.049Z,101954.25
2018-05-18T17:54:35.238Z,101959.95
2018-05-18T17:57:01.796Z,101951.52
2018-05-18T17:59:28.315Z,101952.39
2018-05-18T18:01:54.515Z,101954.22
2018-05-18T18:04:20.822Z,101961.59
2018-05-18T18:06:47.261Z,101960.97
2018-05-18T18:09:13.422Z,101960.81
2018-05-18T18:11:39.814Z,101967.89
2018-05-18T18:14:06.565Z,101970.84
2018-05-18T18:16:32.749Z,101965.87
2018-05-18T18:18:59.122Z,101973.92
2018-05-18T18:21:25.718Z,101978.41
2018-05-18T18:23:51.905Z,101985.03
2018-05-18T18:26:18.514Z,101987.13
2018-05-18T18:28:44.992Z,101968.33
2018-05-18T18:31:11.192Z,101991.01
2018-05-18T18:33:37.729Z,101993.62
2018-05-18T18:36:04.192Z,101984.91
2018-05-18T18:38:30.432Z,101995.70
2018-05-18T18:40:56.790Z,101989.20
2018-05-18T18:43:23.167Z,101989.47
2018-05-18T18:45:49.338Z,102001.38
2018-05-18T18:48:15.611Z,102009.20
2018-05-18T18:50:41.999Z,102003.14
2018-05-18T18:53:08.224Z,102015.94
2018-05-18T18:55:34.751Z,102007.66
2018-05-18T18:58:01.220Z,102011.53
2018-05-18T19:00:27.848Z,102013.92
2018-05-18T19:02:54.380Z,102012.01
2018-05-18T19:05:20.591Z,102017.91
2018-05-18T19:07:46.789Z,102008.36
2018-05-18T19:10:13.156Z,101996.30
2018-05-18T19:12:39.490Z,102015.16
2018-05-18T19:15:05.689Z,102023.30
2018-05-18T19:17:32.257Z,102022.39
2018-05-18T19:19:58.644Z,102017.86
2018-05-18T19:22:24.882Z,102020.75
2018-05-18T19:24:51.186Z,102026.87
2018-05-18T19:27:17.749Z,102028.08
2018-05-18T19:29:44.007Z,102032.06
2018-05-18T19:32:10.546Z,102038.84
2018-05-18T19:34:37.043Z,102049.17
2018-05-18T19:37:03.308Z,102045.62
2018-05-18T19:39:29.676Z,102047.77
2018-05-18T19:41:55.900Z,102040.89
2018-05-18T19:44:22.102Z,102047.47
2018-05-18T19:46:48.420Z,102040.48
2018-05-18T19:49:14.987Z,102049.30
2018-05-18T19:51:41.175Z,102052.02
2018-05-18T19:54:07.542Z,102058.75
2018-05-18T19:56:33.978Z,102058.77
2018-05-18T19:59:00.212Z,102058.31
2018-05-18T20:01:26.868Z,102054.73
2018-05-18T20:03:53.427Z,102055.09
2018-05-18T20:06:19.568Z,102053.76
2018-05-18T20:08:45.969Z,102028.82
2018-05-18T20:11:12.322Z,102061.01
2018-05-18T20:13:38.476Z,102059.25
2018-05-18T20:16:04.843Z,102057.00
2018-05-18T20:18:31.366Z,102068.64
2018-05-18T20:20:57.534Z,102073.08
2018-05-18T20:23:23.918Z,102073.00
2018-05-18T20:25:50.309Z,102075.65
2018-05-18T20:28:16.468Z,102074.14
2018-05-18T20:30:42.752Z,102075.88
2018-05-18T20:33:09.270Z,102076.77
2018-05-18T20:35:35.512Z,102080.77
2018-05-18T20:38:01.831Z,102076.70
2018-05-18T20:40:28.140Z,102078.44
2018-05-18T20:42:54.347Z,102082.38
2018-05-18T20:45:20.890Z,102084.94
2018-05-18T20:47:47.180Z,102083.53
2018-05-18T20:50:13.500Z,102086.48
2018-05-18T20:52:39.760Z,102086.77
2018-05-18T20:55:06.243Z,102063.66
2018-05-18T20:57:32.433Z,102078.89
2018-05-18T20:59:58.861Z,102079.67
2018-05-18T21:02:25.690Z,102084.91
2018-05-18T21:04:51.877Z,102084.31
2018-05-18T21:07:18.266Z,102084.16
2018-05-18T21:09:44.711Z,102081.45
2018-05-18T21:12:10.869Z,102085.19
2018-05-18T21:14:37.179Z,102084.64
2018-05-18T21:17:03.590Z,102086.46
2018-05-18T21:19:29.762Z,102090.19
2018-05-18T21:21:56.048Z,102088.71
2018-05-18T21:24:22.555Z,102089.06
2018-05-18T21:26:48.710Z,102091.16
2018-05-18T21:29:15.043Z,102086.55
2018-05-18T21:31:41.331Z,102100.23
2018-05-18T21:34:07.540Z,102100.16
2018-05-18T21:36:34.167Z,102093.52
2018-05-18T21:39:00.432Z,102096.09
2018-05-18T21:41:26.661Z,102092.44
2018-05-18T21:43:53.013Z,102092.42
2018-05-18T21:46:19.361Z,102100.20
2018-05-18T21:48:45.630Z,102099.59
2018-05-18T21:51:11.945Z,102084.75
2018-05-18T21:53:38.541Z,102098.88
2018-05-18T21:56:04.777Z,102097.91
2018-05-18T21:58:31.329Z,102096.84
2018-05-18T22:00:57.663Z,102103.77
2018-05-18T22:03:24.122Z,102103.14
2018-05-18T22:05:50.675Z,102107.83
2018-05-18T22:08:17.152Z,102114.84
2018-05-18T22:10:43.392Z,102112.56
2018-05-18T22:13:09.741Z,102106.71
2018-05-18T22:15:36.188Z,102112.19
2018-05-18T22:18:02.389Z,102118.60
2018-05-18T22:20:28.829Z,102100.05
2018-05-18T22:22:55.294Z,102111.00
2018-05-18T22:25:21.499Z,102114.36
2018-05-18T22:27:48.012Z,102118.13
2018-05-18T22:30:14.684Z,102118.81
2018-05-18T22:32:40.860Z,102119.08
2018-05-18T22:35:07.268Z,102110.31
2018-05-18T22:37:33.783Z,102112.73
2018-05-18T22:40:00.001Z,102121.37
2018-05-18T22:42:26.473Z,102124.71
2018-05-18T22:44:52.975Z,102122.30
2018-05-18T22:47:19.055Z,102113.08
2018-05-18T22:49:45.552Z,102113.25
2018-05-18T22:52:11.917Z,102113.00
2018-05-18T22:54:38.181Z,102112.41
2018-05-18T22:57:04.411Z,102111.31
2018-05-18T22:59:30.665Z,102111.98
2018-05-18T23:01:56.904Z,102116.22
2018-05-18T23:04:23.608Z,102117.73
2018-05-18T23:06:50.034Z,102113.90
2018-05-18T23:09:16.261Z,102112.31
2018-05-18T23:11:42.728Z,102115.59
2018-05-18T23:14:09.218Z,102123.80
2018-05-18T23:16:35.506Z,102117.71
2018-05-18T23:19:01.894Z,102122.30
2018-05-18T23:21:28.505Z,102122.97
2018-05-18T23:23:54.716Z,102123.60
2018-05-18T23:26:21.212Z,102118.93
2018-05-18T23:28:47.679Z,102120.88
2018-05-18T23:31:13.898Z,102117.09
2018-05-18T23:33:40.287Z,102123.08
2018-05-18T23:36:06.798Z,102131.68
2018-05-18T23:38:32.998Z,102130.51
2018-05-18T23:40:59.394Z,102118.50
2018-05-18T23:43:25.848Z,102133.39
2018-05-18T23:45:52.078Z,102132.66
2018-05-18T23:48:18.573Z,102134.56
2018-05-18T23:50:45.165Z,102134.70
2018-05-18T23:53:11.390Z,102130.97
2018-05-18T23:55:37.828Z,102133.14
2018-05-18T23:58:04.306Z,102132.06
